createdAt,value
2022-12-05T00:24:40.420Z,0.89
2022-12-05T00:29:32.009Z,1.02
2022-12-05T00:34:23.824Z,2.42
2022-12-05T00:39:15.454Z,2.63
2022-12-05T00:44:07.788Z,3.24
2022-12-05T00:49:01.124Z,2.86
2022-12-05T00:53:52.840Z,1.41
2022-12-05T00:58:44.976Z,2.39
2022-12-05T01:03:36.654Z,0.56
2022-12-05T01:08:28.769Z,0.56
2022-12-05T01:13:20.650Z,2.68
2022-12-05T01:18:12.294Z,2.77
2022-12-05T01:23:03.860Z,1.95
2022-12-05T01:27:55.508Z,3.15
2022-12-05T01:32:47.117Z,3.32
2022-12-05T01:37:38.734Z,2.50
2022-12-05T01:42:30.415Z,2.75
2022-12-05T01:47:25.099Z,0.82
2022-12-05T01:52:22.849Z,3.42
2022-12-05T01:57:15.490Z,2.35
2022-12-05T02:02:08.970Z,3.41
2022-12-05T02:07:00.631Z,1.33
2022-12-05T02:11:55.646Z,0.56
2022-12-05T02:17:02.543Z,3.33
2022-12-05T02:22:25.172Z,2.83
2022-12-05T02:27:30.455Z,2.92
2022-12-05T02:33:20.621Z,3.20
2022-12-05T02:38:36.417Z,3.40
2022-12-05T02:43:41.209Z,3.46
2022-12-05T02:48:35.205Z,2.61
2022-12-05T02:53:29.645Z,2.76
2022-12-05T02:58:38.886Z,1.52
2022-12-05T03:03:30.905Z,3.20
2022-12-05T03:08:28.382Z,3.04
2022-12-05T03:13:27.210Z,2.63
2022-12-05T03:18:41.953Z,2.78
2022-12-05T03:23:38.073Z,2.94
2022-12-05T03:28:35.570Z,2.67
2022-12-05T03:33:34.986Z,2.62
2022-12-05T03:38:51.550Z,2.66
2022-12-05T03:43:59.033Z,2.52
2022-12-05T03:48:59.783Z,2.55
2022-12-05T03:53:59.655Z,1.83
2022-12-05T03:59:05.282Z,2.14
2022-12-05T04:04:03.292Z,2.03
2022-12-05T04:09:02.011Z,2.15
2022-12-05T04:14:00.785Z,2.16
2022-12-05T04:19:28.166Z,1.80
2022-12-05T04:24:50.397Z,1.77
2022-12-05T04:30:10.556Z,1.92
2022-12-05T04:35:09.901Z,1.77
2022-12-05T04:40:14.919Z,1.71
2022-12-05T04:45:10.130Z,1.89
2022-12-05T04:50:03.430Z,1.61
2022-12-05T04:55:07.637Z,1.99
2022-12-05T04:59:59.563Z,2.17
2022-12-05T05:04:53.096Z,1.71
2022-12-05T05:09:45.146Z,2.05
2022-12-05T05:14:36.788Z,2.03
2022-12-05T05:19:28.481Z,1.39
2022-12-05T05:24:21.842Z,1.89
2022-12-05T05:29:14.724Z,2.53
2022-12-05T05:34:09.754Z,2.21
2022-12-05T05:39:03.692Z,1.94
2022-12-05T05:43:56.562Z,0.04
2022-12-05T05:48:48.671Z,2.10
2022-12-05T05:53:40.842Z,1.41
2022-12-05T05:58:32.554Z,2.15
2022-12-05T06:03:24.168Z,2.30
2022-12-05T06:08:15.867Z,1.17
2022-12-05T06:13:07.479Z,1.64
2022-12-05T06:17:59.165Z,1.19
2022-12-05T06:22:50.712Z,0.81
2022-12-05T06:27:42.217Z,2.31
2022-12-05T06:32:33.821Z,1.85
2022-12-05T06:37:25.385Z,1.73
2022-12-05T06:42:16.990Z,2.20
2022-12-05T06:47:08.548Z,2.15
2022-12-05T06:52:00.219Z,2.52
2022-12-05T06:56:51.821Z,2.09
2022-12-05T07:01:43.874Z,2.57
2022-12-05T07:06:35.938Z,2.47
2022-12-05T07:11:27.910Z,2.39
2022-12-05T07:16:19.542Z,1.00
2022-12-05T07:21:14.328Z,2.19
2022-12-05T07:26:15.010Z,2.36
2022-12-05T07:31:09.656Z,1.56
2022-12-05T07:36:02.954Z,2.82
2022-12-05T07:40:54.931Z,1.57
2022-12-05T07:45:46.826Z,2.79
2022-12-05T07:50:38.449Z,2.06
2022-12-05T07:55:30.220Z,2.63
2022-12-05T08:00:21.991Z,3.00
2022-12-05T08:05:13.542Z,1.35
2022-12-05T08:10:05.834Z,0.26
2022-12-05T08:14:57.481Z,1.42
2022-12-05T08:19:49.082Z,2.03
2022-12-05T08:24:40.698Z,2.64
2022-12-05T08:29:32.814Z,2.50
2022-12-05T08:34:24.462Z,1.81
2022-12-05T08:39:19.541Z,2.95
2022-12-05T08:44:16.102Z,2.93
2022-12-05T08:49:08.123Z,1.59
2022-12-05T08:54:02.606Z,1.16
2022-12-05T08:59:01.212Z,1.66
2022-12-05T09:03:53.498Z,2.41
2022-12-05T09:08:45.391Z,2.79
2022-12-05T09:13:37.583Z,1.63
2022-12-05T09:18:29.375Z,1.85
2022-12-05T09:23:20.988Z,3.23
2022-12-05T09:28:12.555Z,1.02
2022-12-05T09:33:04.084Z,3.37
2022-12-05T09:37:57.070Z,3.38
2022-12-05T09:42:54.407Z,3.35
2022-12-05T09:47:54.095Z,1.85
2022-12-05T09:53:10.373Z,2.41
2022-12-05T09:58:03.820Z,3.63
2022-12-05T10:03:04.348Z,2.53
2022-12-05T10:08:12.566Z,3.24
2022-12-05T10:13:44.328Z,3.62
2022-12-05T10:18:38.763Z,4.46
2022-12-05T10:23:58.046Z,4.16
2022-12-05T10:29:20.856Z,2.33
2022-12-05T10:34:23.513Z,3.68
2022-12-05T10:39:15.103Z,3.74
2022-12-05T10:44:06.778Z,3.47
2022-12-05T10:48:59.526Z,4.11
2022-12-05T10:53:52.343Z,4.25
2022-12-05T10:58:58.067Z,4.64
2022-12-05T11:03:58.463Z,4.08
2022-12-05T11:09:24.944Z,4.29
2022-12-05T11:14:25.968Z,3.73
2022-12-05T11:19:30.667Z,4.92
2022-12-05T11:24:29.058Z,4.20
2022-12-05T11:29:38.381Z,4.20
2022-12-05T11:34:38.053Z,3.64
2022-12-05T11:39:29.735Z,3.18
2022-12-05T11:44:44.267Z,3.04
2022-12-05T11:49:38.765Z,4.35
2022-12-05T11:55:04.341Z,3.72
2022-12-05T12:00:05.498Z,4.52
2022-12-05T12:05:15.750Z,4.53
2022-12-05T12:10:42.928Z,4.54
2022-12-05T12:15:40.746Z,3.82
2022-12-05T12:20:52.498Z,4.70
2022-12-05T12:26:06.365Z,4.78
2022-12-05T12:31:13.304Z,4.85
2022-12-05T12:36:08.247Z,5.00
2022-12-05T12:41:22.668Z,4.30
2022-12-05T12:46:46.445Z,3.94
2022-12-05T12:51:49.592Z,4.38
2022-12-05T12:56:50.403Z,4.87
2022-12-05T13:01:53.480Z,5.00
2022-12-05T13:07:25.587Z,4.46
2022-12-05T13:12:23.313Z,4.88
2022-12-05T13:17:19.988Z,3.99
2022-12-05T13:22:14.032Z,4.21
2022-12-05T13:27:09.183Z,4.77
2022-12-05T13:32:03.986Z,2.47
2022-12-05T13:37:17.598Z,3.51
2022-12-05T13:42:24.476Z,4.12
2022-12-05T13:47:48.206Z,4.22
2022-12-05T13:52:54.354Z,4.16
2022-12-05T13:57:49.218Z,4.25
2022-12-05T14:02:47.812Z,4.14
2022-12-05T14:07:44.027Z,3.31
2022-12-05T14:12:48.919Z,3.93
2022-12-05T14:17:44.995Z,3.83
2022-12-05T14:22:48.597Z,3.89
2022-12-05T14:28:35.340Z,3.77
2022-12-05T14:33:26.974Z,3.72
2022-12-05T14:38:30.065Z,3.95
2022-12-05T14:43:33.138Z,4.00
2022-12-05T14:48:33.778Z,3.93
2022-12-05T14:53:32.392Z,3.32
2022-12-05T14:58:45.673Z,3.78
2022-12-05T15:03:58.536Z,3.86
2022-12-05T15:08:55.270Z,3.56
2022-12-05T15:13:47.280Z,3.86
2022-12-05T15:18:44.428Z,3.81
2022-12-05T15:23:43.910Z,3.85
2022-12-05T15:28:35.533Z,-0.06
2022-12-05T15:51:40.099Z,3.69
2022-12-05T15:56:55.648Z,3.62
2022-12-05T16:01:52.490Z,2.99
2022-12-05T16:13:17.611Z,3.32
2022-12-05T16:18:24.552Z,3.30
2022-12-05T16:23:45.440Z,3.24
2022-12-05T16:28:37.167Z,2.91
2022-12-05T16:33:30.626Z,2.77
2022-12-05T16:38:32.121Z,2.62
2022-12-05T16:43:23.637Z,3.12
2022-12-05T16:48:31.769Z,3.27
2022-12-05T16:53:32.623Z,3.27
2022-12-05T16:58:27.551Z,2.97
2022-12-05T17:15:59.283Z,3.01
2022-12-05T17:26:30.951Z,2.78
2022-12-05T17:38:04.219Z,2.44
2022-12-05T17:42:55.997Z,2.92
2022-12-05T17:47:47.613Z,2.17
2022-12-05T17:52:39.344Z,2.13
2022-12-05T17:57:30.906Z,2.25
2022-12-05T18:02:22.590Z,2.81
2022-12-05T18:07:14.204Z,2.55
2022-12-05T18:12:05.933Z,2.60
2022-12-05T18:16:57.981Z,2.64
2022-12-05T18:21:49.838Z,2.17
2022-12-05T18:26:41.547Z,2.67
2022-12-05T18:31:33.215Z,2.26
2022-12-05T18:36:24.849Z,2.67
2022-12-05T18:53:30.447Z,2.74
2022-12-05T18:58:23.904Z,2.74
2022-12-05T19:03:21.723Z,2.57
2022-12-05T19:08:13.294Z,2.74
2022-12-05T19:13:04.911Z,2.76
2022-12-05T19:17:56.469Z,2.48
2022-12-05T19:22:48.001Z,2.25
2022-12-05T19:27:39.559Z,2.26
2022-12-05T19:32:35.401Z,2.69
2022-12-05T19:37:30.782Z,2.66
2022-12-05T19:42:22.330Z,2.03
2022-12-05T19:47:13.951Z,2.66
2022-12-05T19:52:05.602Z,2.79
2022-12-05T19:57:00.488Z,2.88
2022-12-05T20:01:52.425Z,2.61
2022-12-05T20:06:48.942Z,2.83
2022-12-05T20:11:43.865Z,2.68
2022-12-05T20:16:36.631Z,2.55
2022-12-05T20:21:31.176Z,2.62
2022-12-05T20:26:25.552Z,2.28
2022-12-05T20:31:20.168Z,2.34
2022-12-05T20:36:14.365Z,2.35
2022-12-05T20:41:08.620Z,2.70
2022-12-05T20:46:10.131Z,2.07
2022-12-05T20:51:26.321Z,2.39
2022-12-05T20:56:25.251Z,2.27
2022-12-05T21:01:18.661Z,2.67
2022-12-05T21:06:13.589Z,2.54
2022-12-05T21:11:06.261Z,2.42
2022-12-05T21:16:01.084Z,2.06
2022-12-05T21:21:00.943Z,2.84
2022-12-05T21:25:53.973Z,2.52
2022-12-05T21:30:46.257Z,2.01
2022-12-05T21:35:38.558Z,2.34
2022-12-05T21:40:30.262Z,2.93
2022-12-05T21:45:22.517Z,2.70
2022-12-05T21:50:14.094Z,2.39
2022-12-05T21:55:07.717Z,2.89
2022-12-05T21:59:59.753Z,2.43
2022-12-05T22:04:51.460Z,3.07
2022-12-05T22:09:43.081Z,2.23
2022-12-05T22:14:35.415Z,2.17
2022-12-05T22:19:28.711Z,2.64
2022-12-05T22:24:20.381Z,2.71
2022-12-05T22:29:12.020Z,2.57
2022-12-05T22:34:03.603Z,2.22
2022-12-05T22:38:55.189Z,2.29
2022-12-05T22:43:48.556Z,2.80
2022-12-05T22:48:40.156Z,2.81
2022-12-05T22:53:32.090Z,3.03
2022-12-05T22:58:23.635Z,3.05
2022-12-05T23:03:15.256Z,2.68
2022-12-05T23:08:07.489Z,3.02
2022-12-05T23:12:59.109Z,2.55
2022-12-05T23:17:50.692Z,3.13
2022-12-05T23:22:42.362Z,2.44
2022-12-05T23:27:34.763Z,3.04
2022-12-05T23:32:26.377Z,2.95
2022-12-05T23:37:18.122Z,2.97
2022-12-05T23:42:15.069Z,3.09
2022-12-05T23:47:07.209Z,3.01
2022-12-05T23:51:58.879Z,2.35
2022-12-05T23:56:50.496Z,2.91
